sensor_id;sensor_type;location;lat;lon;timestamp;P1;durP1;ratioP1;P2;durP2;ratioP2
42840;SDS011;28491;46.898;7.660;2023-05-27T00:00:55;11.63;;;6.68;;
42840;SDS011;28491;46.898;7.660;2023-05-27T00:03:21;12.43;;;6.45;;
42840;SDS011;28491;46.898;7.660;2023-05-27T00:05:46;11.25;;;7.40;;
42840;SDS011;28491;46.898;7.660;2023-05-27T00:08:12;9.27;;;7.53;;
42840;SDS011;28491;46.898;7.660;2023-05-27T00:10:38;11.27;;;7.47;;
42840;SDS011;28491;46.898;7.660;2023-05-27T00:13:03;8.60;;;6.68;;
42840;SDS011;28491;46.898;7.660;2023-05-27T00:15:29;12.50;;;7.43;;
42840;SDS011;28491;46.898;7.660;2023-05-27T00:17:57;12.15;;;7.10;;
42840;SDS011;28491;46.898;7.660;2023-05-27T00:20:25;10.77;;;7.63;;
42840;SDS011;28491;46.898;7.660;2023-05-27T00:22:50;11.70;;;7.55;;
42840;SDS011;28491;46.898;7.660;2023-05-27T00:25:16;12.15;;;8.25;;
42840;SDS011;28491;46.898;7.660;2023-05-27T00:27:45;10.65;;;7.38;;
42840;SDS011;28491;46.898;7.660;2023-05-27T00:30:11;10.35;;;7.70;;
42840;SDS011;28491;46.898;7.660;2023-05-27T00:32:36;11.73;;;7.95;;
42840;SDS011;28491;46.898;7.660;2023-05-27T00:35:02;9.25;;;8.13;;
42840;SDS011;28491;46.898;7.660;2023-05-27T00:37:28;12.23;;;8.13;;
42840;SDS011;28491;46.898;7.660;2023-05-27T00:39:53;10.80;;;7.82;;
42840;SDS011;28491;46.898;7.660;2023-05-27T00:42:20;11.77;;;7.78;;
42840;SDS011;28491;46.898;7.660;2023-05-27T00:44:45;12.63;;;8.23;;
42840;SDS011;28491;46.898;7.660;2023-05-27T00:47:11;11.65;;;8.15;;
42840;SDS011;28491;46.898;7.660;2023-05-27T00:49:36;11.05;;;7.95;;
42840;SDS011;28491;46.898;7.660;2023-05-27T00:52:03;13.25;;;8.35;;
42840;SDS011;28491;46.898;7.660;2023-05-27T00:54:29;12.82;;;7.70;;
42840;SDS011;28491;46.898;7.660;2023-05-27T00:56:56;13.65;;;7.38;;
42840;SDS011;28491;46.898;7.660;2023-05-27T00:59:22;8.95;;;7.05;;
42840;SDS011;28491;46.898;7.660;2023-05-27T01:01:48;12.73;;;8.95;;
42840;SDS011;28491;46.898;7.660;2023-05-27T01:04:14;15.30;;;7.65;;
42840;SDS011;28491;46.898;7.660;2023-05-27T01:09:39;11.10;;;7.50;;
42840;SDS011;28491;46.898;7.660;2023-05-27T01:12:33;12.20;;;7.65;;
42840;SDS011;28491;46.898;7.660;2023-05-27T01:15:13;12.02;;;7.18;;
42840;SDS011;28491;46.898;7.660;2023-05-27T01:17:39;12.48;;;8.07;;
42840;SDS011;28491;46.898;7.660;2023-05-27T01:20:09;10.60;;;7.87;;
42840;SDS011;28491;46.898;7.660;2023-05-27T01:22:35;12.63;;;8.70;;
42840;SDS011;28491;46.898;7.660;2023-05-27T01:25:02;11.32;;;8.15;;
42840;SDS011;28491;46.898;7.660;2023-05-27T01:27:28;14.77;;;8.95;;
42840;SDS011;28491;46.898;7.660;2023-05-27T01:29:54;10.80;;;7.50;;
42840;SDS011;28491;46.898;7.660;2023-05-27T01:32:23;11.13;;;7.93;;
42840;SDS011;28491;46.898;7.660;2023-05-27T01:35:07;14.90;;;9.52;;
42840;SDS011;28491;46.898;7.660;2023-05-27T01:37:42;13.02;;;7.20;;
42840;SDS011;28491;46.898;7.660;2023-05-27T01:40:09;14.75;;;8.23;;
42840;SDS011;28491;46.898;7.660;2023-05-27T01:42:38;12.98;;;7.78;;
42840;SDS011;28491;46.898;7.660;2023-05-27T01:45:06;9.15;;;7.40;;
42840;SDS011;28491;46.898;7.660;2023-05-27T01:47:33;12.93;;;8.15;;
42840;SDS011;28491;46.898;7.660;2023-05-27T01:49:59;20.20;;;7.70;;
42840;SDS011;28491;46.898;7.660;2023-05-27T01:52:25;12.85;;;8.02;;
42840;SDS011;28491;46.898;7.660;2023-05-27T01:54:51;10.98;;;8.43;;
42840;SDS011;28491;46.898;7.660;2023-05-27T01:57:17;11.13;;;8.27;;
42840;SDS011;28491;46.898;7.660;2023-05-27T01:59:43;11.40;;;7.80;;
42840;SDS011;28491;46.898;7.660;2023-05-27T02:02:09;12.25;;;8.45;;
42840;SDS011;28491;46.898;7.660;2023-05-27T02:04:34;11.45;;;7.53;;
42840;SDS011;28491;46.898;7.660;2023-05-27T02:07:00;12.32;;;7.45;;
42840;SDS011;28491;46.898;7.660;2023-05-27T02:09:26;15.15;;;8.82;;
42840;SDS011;28491;46.898;7.660;2023-05-27T02:11:51;11.70;;;7.93;;
42840;SDS011;28491;46.898;7.660;2023-05-27T02:14:17;11.63;;;8.65;;
42840;SDS011;28491;46.898;7.660;2023-05-27T02:16:42;11.63;;;8.35;;
42840;SDS011;28491;46.898;7.660;2023-05-27T02:19:08;10.80;;;8.32;;
42840;SDS011;28491;46.898;7.660;2023-05-27T02:21:34;11.73;;;8.35;;
42840;SDS011;28491;46.898;7.660;2023-05-27T02:24:00;10.85;;;7.75;;
42840;SDS011;28491;46.898;7.660;2023-05-27T02:26:27;14.00;;;8.43;;
42840;SDS011;28491;46.898;7.660;2023-05-27T02:28:53;9.82;;;7.68;;
42840;SDS011;28491;46.898;7.660;2023-05-27T02:31:19;13.07;;;8.32;;
42840;SDS011;28491;46.898;7.660;2023-05-27T02:33:45;11.05;;;8.10;;
42840;SDS011;28491;46.898;7.660;2023-05-27T02:36:11;12.55;;;8.10;;
42840;SDS011;28491;46.898;7.660;2023-05-27T02:38:37;14.75;;;9.38;;
42840;SDS011;28491;46.898;7.660;2023-05-27T02:41:02;11.15;;;8.65;;
42840;SDS011;28491;46.898;7.660;2023-05-27T02:43:28;12.88;;;8.70;;
42840;SDS011;28491;46.898;7.660;2023-05-27T02:45:54;17.02;;;8.48;;
42840;SDS011;28491;46.898;7.660;2023-05-27T02:48:19;14.90;;;7.45;;
42840;SDS011;28491;46.898;7.660;2023-05-27T02:50:45;12.40;;;8.77;;
42840;SDS011;28491;46.898;7.660;2023-05-27T02:53:10;10.93;;;8.02;;
42840;SDS011;28491;46.898;7.660;2023-05-27T02:55:36;9.30;;;7.13;;
42840;SDS011;28491;46.898;7.660;2023-05-27T02:58:01;13.60;;;8.90;;
42840;SDS011;28491;46.898;7.660;2023-05-27T03:00:29;15.80;;;8.57;;
42840;SDS011;28491;46.898;7.660;2023-05-27T03:02:55;12.90;;;8.10;;
42840;SDS011;28491;46.898;7.660;2023-05-27T03:05:21;11.70;;;9.25;;
42840;SDS011;28491;46.898;7.660;2023-05-27T03:07:46;12.80;;;8.43;;
42840;SDS011;28491;46.898;7.660;2023-05-27T03:10:12;13.27;;;8.13;;
42840;SDS011;28491;46.898;7.660;2023-05-27T03:12:37;11.98;;;8.25;;
42840;SDS011;28491;46.898;7.660;2023-05-27T03:15:03;12.73;;;7.80;;
42840;SDS011;28491;46.898;7.660;2023-05-27T03:17:29;13.15;;;8.70;;
42840;SDS011;28491;46.898;7.660;2023-05-27T03:19:54;12.88;;;8.48;;
42840;SDS011;28491;46.898;7.660;2023-05-27T03:22:20;18.27;;;10.48;;
42840;SDS011;28491;46.898;7.660;2023-05-27T03:24:46;11.55;;;8.82;;
42840;SDS011;28491;46.898;7.660;2023-05-27T03:27:12;13.05;;;9.10;;
42840;SDS011;28491;46.898;7.660;2023-05-27T03:29:37;14.23;;;10.02;;
42840;SDS011;28491;46.898;7.660;2023-05-27T03:32:05;15.85;;;10.07;;
42840;SDS011;28491;46.898;7.660;2023-05-27T03:34:31;18.98;;;10.18;;
42840;SDS011;28491;46.898;7.660;2023-05-27T03:36:57;15.82;;;9.95;;
42840;SDS011;28491;46.898;7.660;2023-05-27T03:39:22;15.25;;;9.63;;
42840;SDS011;28491;46.898;7.660;2023-05-27T03:41:48;13.60;;;9.23;;
42840;SDS011;28491;46.898;7.660;2023-05-27T03:44:13;15.77;;;10.68;;
42840;SDS011;28491;46.898;7.660;2023-05-27T03:46:39;21.08;;;11.88;;
42840;SDS011;28491;46.898;7.660;2023-05-27T03:49:04;12.02;;;9.38;;
42840;SDS011;28491;46.898;7.660;2023-05-27T03:51:30;17.45;;;10.73;;
42840;SDS011;28491;46.898;7.660;2023-05-27T03:53:56;13.45;;;10.32;;
42840;SDS011;28491;46.898;7.660;2023-05-27T03:56:22;14.05;;;9.65;;
42840;SDS011;28491;46.898;7.660;2023-05-27T03:58:49;14.32;;;10.00;;
42840;SDS011;28491;46.898;7.660;2023-05-27T04:01:15;11.82;;;9.10;;
42840;SDS011;28491;46.898;7.660;2023-05-27T04:03:41;12.82;;;9.15;;
42840;SDS011;28491;46.898;7.660;2023-05-27T04:06:08;12.32;;;9.15;;
42840;SDS011;28491;46.898;7.660;2023-05-27T04:08:34;13.95;;;8.48;;
42840;SDS011;28491;46.898;7.660;2023-05-27T04:11:00;16.52;;;9.57;;
42840;SDS011;28491;46.898;7.660;2023-05-27T04:13:26;14.10;;;9.40;;
42840;SDS011;28491;46.898;7.660;2023-05-27T04:15:51;11.50;;;9.05;;
42840;SDS011;28491;46.898;7.660;2023-05-27T04:18:18;17.40;;;9.65;;
42840;SDS011;28491;46.898;7.660;2023-05-27T04:20:44;13.90;;;9.07;;
42840;SDS011;28491;46.898;7.660;2023-05-27T04:23:12;13.52;;;8.93;;
42840;SDS011;28491;46.898;7.660;2023-05-27T04:25:37;14.48;;;9.73;;
42840;SDS011;28491;46.898;7.660;2023-05-27T04:28:04;13.07;;;9.10;;
42840;SDS011;28491;46.898;7.660;2023-05-27T04:30:30;14.13;;;8.48;;
42840;SDS011;28491;46.898;7.660;2023-05-27T04:32:56;16.85;;;8.45;;
42840;SDS011;28491;46.898;7.660;2023-05-27T04:35:22;14.38;;;8.70;;
42840;SDS011;28491;46.898;7.660;2023-05-27T04:37:48;11.63;;;8.15;;
42840;SDS011;28491;46.898;7.660;2023-05-27T04:40:14;13.43;;;8.93;;
42840;SDS011;28491;46.898;7.660;2023-05-27T04:42:39;14.50;;;9.07;;
42840;SDS011;28491;46.898;7.660;2023-05-27T04:45:05;12.65;;;8.75;;
42840;SDS011;28491;46.898;7.660;2023-05-27T04:47:32;16.63;;;9.05;;
42840;SDS011;28491;46.898;7.660;2023-05-27T04:49:58;13.00;;;9.15;;
42840;SDS011;28491;46.898;7.660;2023-05-27T04:52:25;18.35;;;9.85;;
42840;SDS011;28491;46.898;7.660;2023-05-27T04:54:51;15.93;;;9.57;;
42840;SDS011;28491;46.898;7.660;2023-05-27T04:57:19;11.60;;;9.48;;
42840;SDS011;28491;46.898;7.660;2023-05-27T04:59:45;13.88;;;9.68;;
42840;SDS011;28491;46.898;7.660;2023-05-27T05:02:23;12.07;;;8.65;;
42840;SDS011;28491;46.898;7.660;2023-05-27T05:04:52;14.02;;;8.60;;
42840;SDS011;28491;46.898;7.660;2023-05-27T05:07:17;12.93;;;9.23;;
42840;SDS011;28491;46.898;7.660;2023-05-27T05:09:46;14.63;;;9.25;;
42840;SDS011;28491;46.898;7.660;2023-05-27T05:12:12;13.75;;;9.23;;
42840;SDS011;28491;46.898;7.660;2023-05-27T05:14:37;12.10;;;8.82;;
42840;SDS011;28491;46.898;7.660;2023-05-27T05:17:03;10.43;;;8.02;;
42840;SDS011;28491;46.898;7.660;2023-05-27T05:19:29;11.65;;;8.23;;
42840;SDS011;28491;46.898;7.660;2023-05-27T05:21:54;13.15;;;8.40;;
42840;SDS011;28491;46.898;7.660;2023-05-27T05:24:20;14.38;;;8.32;;
42840;SDS011;28491;46.898;7.660;2023-05-27T05:26:46;12.18;;;9.05;;
42840;SDS011;28491;46.898;7.660;2023-05-27T05:29:11;9.02;;;7.70;;
42840;SDS011;28491;46.898;7.660;2023-05-27T05:31:37;11.35;;;7.90;;
42840;SDS011;28491;46.898;7.660;2023-05-27T05:34:02;12.20;;;7.68;;
42840;SDS011;28491;46.898;7.660;2023-05-27T05:36:28;12.82;;;8.00;;
42840;SDS011;28491;46.898;7.660;2023-05-27T05:38:54;13.18;;;9.75;;
42840;SDS011;28491;46.898;7.660;2023-05-27T05:41:19;14.73;;;8.68;;
42840;SDS011;28491;46.898;7.660;2023-05-27T05:43:45;13.55;;;8.57;;
42840;SDS011;28491;46.898;7.660;2023-05-27T05:46:10;10.70;;;7.47;;
42840;SDS011;28491;46.898;7.660;2023-05-27T05:48:36;8.20;;;6.78;;
42840;SDS011;28491;46.898;7.660;2023-05-27T05:51:01;10.85;;;7.20;;
42840;SDS011;28491;46.898;7.660;2023-05-27T05:53:27;11.30;;;7.65;;
42840;SDS011;28491;46.898;7.660;2023-05-27T05:55:53;10.90;;;6.80;;
42840;SDS011;28491;46.898;7.660;2023-05-27T05:58:19;11.05;;;6.63;;
42840;SDS011;28491;46.898;7.660;2023-05-27T06:00:44;9.63;;;6.50;;
42840;SDS011;28491;46.898;7.660;2023-05-27T06:03:10;10.00;;;5.78;;
42840;SDS011;28491;46.898;7.660;2023-05-27T06:05:35;10.80;;;6.55;;
42840;SDS011;28491;46.898;7.660;2023-05-27T06:08:01;12.20;;;7.97;;
42840;SDS011;28491;46.898;7.660;2023-05-27T06:10:26;9.18;;;6.72;;
42840;SDS011;28491;46.898;7.660;2023-05-27T06:12:52;8.48;;;5.90;;
42840;SDS011;28491;46.898;7.660;2023-05-27T06:15:17;11.27;;;5.45;;
42840;SDS011;28491;46.898;7.660;2023-05-27T06:17:43;7.00;;;5.13;;
42840;SDS011;28491;46.898;7.660;2023-05-27T06:20:09;13.07;;;5.70;;
42840;SDS011;28491;46.898;7.660;2023-05-27T06:22:35;6.75;;;5.65;;
42840;SDS011;28491;46.898;7.660;2023-05-27T06:25:01;11.82;;;6.95;;
42840;SDS011;28491;46.898;7.660;2023-05-27T06:27:26;11.00;;;6.13;;
42840;SDS011;28491;46.898;7.660;2023-05-27T06:29:52;8.50;;;6.00;;
42840;SDS011;28491;46.898;7.660;2023-05-27T06:32:17;9.98;;;6.30;;
42840;SDS011;28491;46.898;7.660;2023-05-27T06:34:43;7.75;;;6.00;;
42840;SDS011;28491;46.898;7.660;2023-05-27T06:37:08;10.85;;;5.90;;
42840;SDS011;28491;46.898;7.660;2023-05-27T06:39:34;10.98;;;6.10;;
42840;SDS011;28491;46.898;7.660;2023-05-27T06:41:59;10.70;;;6.60;;
42840;SDS011;28491;46.898;7.660;2023-05-27T06:44:26;7.38;;;5.25;;
42840;SDS011;28491;46.898;7.660;2023-05-27T06:46:51;6.43;;;5.30;;
42840;SDS011;28491;46.898;7.660;2023-05-27T06:49:17;6.82;;;5.88;;
42840;SDS011;28491;46.898;7.660;2023-05-27T06:51:42;8.80;;;6.13;;
42840;SDS011;28491;46.898;7.660;2023-05-27T06:54:08;7.07;;;5.55;;
42840;SDS011;28491;46.898;7.660;2023-05-27T06:56:34;10.55;;;5.93;;
42840;SDS011;28491;46.898;7.660;2023-05-27T06:58:59;10.73;;;6.25;;
42840;SDS011;28491;46.898;7.660;2023-05-27T07:01:25;6.65;;;5.38;;
42840;SDS011;28491;46.898;7.660;2023-05-27T07:03:50;9.00;;;6.35;;
42840;SDS011;28491;46.898;7.660;2023-05-27T07:06:16;10.27;;;6.03;;
42840;SDS011;28491;46.898;7.660;2023-05-27T07:08:41;10.18;;;6.68;;
42840;SDS011;28491;46.898;7.660;2023-05-27T07:11:07;10.85;;;6.75;;
42840;SDS011;28491;46.898;7.660;2023-05-27T07:13:32;8.05;;;6.47;;
42840;SDS011;28491;46.898;7.660;2023-05-27T07:15:58;9.88;;;5.78;;
42840;SDS011;28491;46.898;7.660;2023-05-27T07:18:23;9.13;;;7.07;;
42840;SDS011;28491;46.898;7.660;2023-05-27T07:20:49;7.72;;;5.63;;
42840;SDS011;28491;46.898;7.660;2023-05-27T07:23:14;9.10;;;5.60;;
42840;SDS011;28491;46.898;7.660;2023-05-27T07:25:41;8.45;;;6.40;;
42840;SDS011;28491;46.898;7.660;2023-05-27T07:28:06;13.73;;;6.65;;
42840;SDS011;28491;46.898;7.660;2023-05-27T07:30:32;8.18;;;6.03;;
42840;SDS011;28491;46.898;7.660;2023-05-27T07:32:57;8.30;;;5.53;;
42840;SDS011;28491;46.898;7.660;2023-05-27T07:35:23;9.13;;;6.15;;
42840;SDS011;28491;46.898;7.660;2023-05-27T07:37:48;12.20;;;6.50;;
42840;SDS011;28491;46.898;7.660;2023-05-27T07:40:14;7.85;;;6.13;;
42840;SDS011;28491;46.898;7.660;2023-05-27T07:42:39;6.82;;;5.03;;
42840;SDS011;28491;46.898;7.660;2023-05-27T07:45:05;9.85;;;6.10;;
42840;SDS011;28491;46.898;7.660;2023-05-27T07:47:31;9.30;;;5.80;;
42840;SDS011;28491;46.898;7.660;2023-05-27T07:49:57;9.00;;;5.63;;
42840;SDS011;28491;46.898;7.660;2023-05-27T07:52:22;10.73;;;6.35;;
42840;SDS011;28491;46.898;7.660;2023-05-27T07:54:48;7.97;;;5.63;;
42840;SDS011;28491;46.898;7.660;2023-05-27T07:57:14;8.60;;;6.13;;
42840;SDS011;28491;46.898;7.660;2023-05-27T07:59:41;7.93;;;5.57;;
42840;SDS011;28491;46.898;7.660;2023-05-27T08:02:08;9.60;;;5.50;;
42840;SDS011;28491;46.898;7.660;2023-05-27T08:04:34;9.05;;;5.57;;
42840;SDS011;28491;46.898;7.660;2023-05-27T08:06:59;9.25;;;5.88;;
42840;SDS011;28491;46.898;7.660;2023-05-27T08:09:25;7.88;;;5.30;;
42840;SDS011;28491;46.898;7.660;2023-05-27T08:11:51;6.43;;;5.40;;
42840;SDS011;28491;46.898;7.660;2023-05-27T08:14:16;8.80;;;5.65;;
42840;SDS011;28491;46.898;7.660;2023-05-27T08:16:42;7.30;;;5.22;;
42840;SDS011;28491;46.898;7.660;2023-05-27T08:19:07;11.27;;;6.15;;
42840;SDS011;28491;46.898;7.660;2023-05-27T08:21:33;8.82;;;6.82;;
42840;SDS011;28491;46.898;7.660;2023-05-27T08:23:58;10.35;;;7.28;;
42840;SDS011;28491;46.898;7.660;2023-05-27T08:26:25;9.85;;;7.07;;
42840;SDS011;28491;46.898;7.660;2023-05-27T08:28:51;10.20;;;6.60;;
42840;SDS011;28491;46.898;7.660;2023-05-27T08:31:16;8.82;;;6.57;;
42840;SDS011;28491;46.898;7.660;2023-05-27T08:33:42;11.65;;;7.45;;
42840;SDS011;28491;46.898;7.660;2023-05-27T08:36:08;11.07;;;7.00;;
42840;SDS011;28491;46.898;7.660;2023-05-27T08:38:33;8.80;;;6.80;;
42840;SDS011;28491;46.898;7.660;2023-05-27T08:40:59;8.73;;;6.38;;
42840;SDS011;28491;46.898;7.660;2023-05-27T08:43:25;8.45;;;7.25;;
42840;SDS011;28491;46.898;7.660;2023-05-27T08:45:51;11.82;;;7.38;;
42840;SDS011;28491;46.898;7.660;2023-05-27T08:48:16;12.75;;;7.53;;
42840;SDS011;28491;46.898;7.660;2023-05-27T08:50:42;8.02;;;6.85;;
42840;SDS011;28491;46.898;7.660;2023-05-27T08:53:08;8.63;;;6.95;;
42840;SDS011;28491;46.898;7.660;2023-05-27T08:55:34;9.60;;;6.72;;
42840;SDS011;28491;46.898;7.660;2023-05-27T08:58:04;10.57;;;7.55;;
42840;SDS011;28491;46.898;7.660;2023-05-27T09:00:31;10.50;;;6.88;;
42840;SDS011;28491;46.898;7.660;2023-05-27T09:02:57;10.05;;;7.15;;
42840;SDS011;28491;46.898;7.660;2023-05-27T09:05:25;18.13;;;7.10;;
42840;SDS011;28491;46.898;7.660;2023-05-27T09:07:50;14.90;;;7.88;;
42840;SDS011;28491;46.898;7.660;2023-05-27T09:10:16;12.27;;;7.80;;
42840;SDS011;28491;46.898;7.660;2023-05-27T09:12:42;13.45;;;7.75;;
42840;SDS011;28491;46.898;7.660;2023-05-27T09:15:09;9.32;;;6.88;;
42840;SDS011;28491;46.898;7.660;2023-05-27T09:17:39;11.55;;;6.45;;
42840;SDS011;28491;46.898;7.660;2023-05-27T09:20:06;16.40;;;7.63;;
42840;SDS011;28491;46.898;7.660;2023-05-27T09:22:32;13.27;;;7.07;;
42840;SDS011;28491;46.898;7.660;2023-05-27T09:24:58;10.18;;;6.82;;
42840;SDS011;28491;46.898;7.660;2023-05-27T09:27:25;8.55;;;6.45;;
42840;SDS011;28491;46.898;7.660;2023-05-27T09:29:51;7.95;;;5.70;;
42840;SDS011;28491;46.898;7.660;2023-05-27T09:32:24;8.80;;;7.32;;
42840;SDS011;28491;46.898;7.660;2023-05-27T09:53:04;16.35;;;7.25;;
42840;SDS011;28491;46.898;7.660;2023-05-27T09:55:30;15.98;;;7.68;;
42840;SDS011;28491;46.898;7.660;2023-05-27T09:57:56;10.82;;;7.40;;
42840;SDS011;28491;46.898;7.660;2023-05-27T10:00:22;12.00;;;7.93;;
42840;SDS011;28491;46.898;7.660;2023-05-27T10:02:48;12.80;;;8.38;;
42840;SDS011;28491;46.898;7.660;2023-05-27T10:05:14;11.02;;;7.50;;
42840;SDS011;28491;46.898;7.660;2023-05-27T10:07:41;13.82;;;7.40;;
42840;SDS011;28491;46.898;7.660;2023-05-27T10:12:43;14.25;;;7.90;;
42840;SDS011;28491;46.898;7.660;2023-05-27T10:15:20;10.98;;;7.30;;
42840;SDS011;28491;46.898;7.660;2023-05-27T10:17:53;9.95;;;7.13;;
42840;SDS011;28491;46.898;7.660;2023-05-27T10:20:33;10.38;;;7.38;;
42840;SDS011;28491;46.898;7.660;2023-05-27T10:23:15;17.88;;;7.72;;
42840;SDS011;28491;46.898;7.660;2023-05-27T10:25:49;14.45;;;8.13;;
42840;SDS011;28491;46.898;7.660;2023-05-27T10:28:30;10.77;;;7.72;;
42840;SDS011;28491;46.898;7.660;2023-05-27T10:31:04;10.52;;;7.65;;
42840;SDS011;28491;46.898;7.660;2023-05-27T10:33:34;11.70;;;7.50;;
42840;SDS011;28491;46.898;7.660;2023-05-27T10:36:08;12.10;;;6.32;;
42840;SDS011;28491;46.898;7.660;2023-05-27T10:38:36;8.70;;;6.47;;
42840;SDS011;28491;46.898;7.660;2023-05-27T10:41:02;20.13;;;7.25;;
42840;SDS011;28491;46.898;7.660;2023-05-27T10:43:29;13.57;;;6.78;;
42840;SDS011;28491;46.898;7.660;2023-05-27T10:48:28;12.30;;;6.88;;
42840;SDS011;28491;46.898;7.660;2023-05-27T10:50:56;13.27;;;6.90;;
42840;SDS011;28491;46.898;7.660;2023-05-27T10:53:24;11.60;;;6.63;;
42840;SDS011;28491;46.898;7.660;2023-05-27T10:55:51;11.37;;;7.37;;
42840;SDS011;28491;46.898;7.660;2023-05-27T10:58:17;10.82;;;6.40;;
42840;SDS011;28491;46.898;7.660;2023-05-27T11:00:44;9.93;;;6.82;;
42840;SDS011;28491;46.898;7.660;2023-05-27T11:05:41;8.95;;;6.60;;
42840;SDS011;28491;46.898;7.660;2023-05-27T11:08:11;9.77;;;6.40;;
42840;SDS011;28491;46.898;7.660;2023-05-27T11:10:39;13.52;;;8.05;;
42840;SDS011;28491;46.898;7.660;2023-05-27T11:13:05;13.60;;;6.55;;
42840;SDS011;28491;46.898;7.660;2023-05-27T11:15:31;8.75;;;6.18;;
42840;SDS011;28491;46.898;7.660;2023-05-27T11:18:03;12.82;;;6.72;;
42840;SDS011;28491;46.898;7.660;2023-05-27T11:20:35;10.35;;;7.78;;
42840;SDS011;28491;46.898;7.660;2023-05-27T11:23:02;7.65;;;6.50;;
42840;SDS011;28491;46.898;7.660;2023-05-27T11:25:27;13.75;;;7.20;;
42840;SDS011;28491;46.898;7.660;2023-05-27T11:27:53;8.50;;;5.90;;
42840;SDS011;28491;46.898;7.660;2023-05-27T11:30:22;9.57;;;6.00;;
42840;SDS011;28491;46.898;7.660;2023-05-27T11:32:49;11.43;;;6.47;;
42840;SDS011;28491;46.898;7.660;2023-05-27T11:35:15;8.57;;;5.70;;
42840;SDS011;28491;46.898;7.660;2023-05-27T11:37:45;7.78;;;5.90;;
42840;SDS011;28491;46.898;7.660;2023-05-27T11:40:14;8.70;;;6.45;;
42840;SDS011;28491;46.898;7.660;2023-05-27T11:42:46;10.35;;;6.85;;
42840;SDS011;28491;46.898;7.660;2023-05-27T11:45:18;16.63;;;6.85;;
42840;SDS011;28491;46.898;7.660;2023-05-27T11:47:45;11.32;;;6.03;;
42840;SDS011;28491;46.898;7.660;2023-05-27T11:50:16;14.55;;;6.72;;
42840;SDS011;28491;46.898;7.660;2023-05-27T11:52:52;11.13;;;7.35;;
42840;SDS011;28491;46.898;7.660;2023-05-27T11:55:22;11.63;;;6.80;;
42840;SDS011;28491;46.898;7.660;2023-05-27T11:57:48;10.95;;;7.68;;
42840;SDS011;28491;46.898;7.660;2023-05-27T12:00:14;11.02;;;6.47;;
42840;SDS011;28491;46.898;7.660;2023-05-27T12:02:40;12.90;;;5.70;;
42840;SDS011;28491;46.898;7.660;2023-05-27T12:05:07;10.18;;;6.03;;
42840;SDS011;28491;46.898;7.660;2023-05-27T12:07:34;11.70;;;6.88;;
42840;SDS011;28491;46.898;7.660;2023-05-27T12:10:00;9.40;;;5.90;;
42840;SDS011;28491;46.898;7.660;2023-05-27T12:12:26;9.85;;;6.03;;
42840;SDS011;28491;46.898;7.660;2023-05-27T12:14:51;10.52;;;5.90;;
42840;SDS011;28491;46.898;7.660;2023-05-27T12:17:17;11.25;;;6.30;;
42840;SDS011;28491;46.898;7.660;2023-05-27T12:19:43;10.00;;;6.55;;
42840;SDS011;28491;46.898;7.660;2023-05-27T12:22:08;9.90;;;6.07;;
42840;SDS011;28491;46.898;7.660;2023-05-27T12:24:34;11.63;;;6.25;;
42840;SDS011;28491;46.898;7.660;2023-05-27T12:26:59;12.00;;;6.05;;
42840;SDS011;28491;46.898;7.660;2023-05-27T12:29:26;8.65;;;5.55;;
42840;SDS011;28491;46.898;7.660;2023-05-27T12:31:52;8.50;;;5.97;;
42840;SDS011;28491;46.898;7.660;2023-05-27T12:34:18;9.43;;;6.07;;
42840;SDS011;28491;46.898;7.660;2023-05-27T12:36:43;11.35;;;6.15;;
42840;SDS011;28491;46.898;7.660;2023-05-27T12:39:09;9.38;;;6.40;;
42840;SDS011;28491;46.898;7.660;2023-05-27T12:41:34;8.10;;;6.25;;
42840;SDS011;28491;46.898;7.660;2023-05-27T12:44:01;11.18;;;6.00;;
42840;SDS011;28491;46.898;7.660;2023-05-27T12:46:26;12.43;;;6.40;;
42840;SDS011;28491;46.898;7.660;2023-05-27T12:48:52;7.75;;;5.18;;
42840;SDS011;28491;46.898;7.660;2023-05-27T12:51:17;9.73;;;6.78;;
42840;SDS011;28491;46.898;7.660;2023-05-27T12:53:43;8.27;;;5.53;;
42840;SDS011;28491;46.898;7.660;2023-05-27T12:56:08;8.45;;;5.95;;
42840;SDS011;28491;46.898;7.660;2023-05-27T12:58:34;12.23;;;6.38;;
42840;SDS011;28491;46.898;7.660;2023-05-27T13:00:59;10.52;;;5.47;;
42840;SDS011;28491;46.898;7.660;2023-05-27T13:03:25;8.18;;;6.05;;
42840;SDS011;28491;46.898;7.660;2023-05-27T13:05:51;9.60;;;5.35;;
42840;SDS011;28491;46.898;7.660;2023-05-27T13:08:16;9.05;;;5.82;;
42840;SDS011;28491;46.898;7.660;2023-05-27T13:10:42;8.85;;;5.88;;
42840;SDS011;28491;46.898;7.660;2023-05-27T13:13:07;8.75;;;5.68;;
42840;SDS011;28491;46.898;7.660;2023-05-27T13:15:33;13.13;;;5.78;;
42840;SDS011;28491;46.898;7.660;2023-05-27T13:17:58;11.52;;;6.18;;
42840;SDS011;28491;46.898;7.660;2023-05-27T13:20:25;11.32;;;6.22;;
42840;SDS011;28491;46.898;7.660;2023-05-27T13:22:54;8.98;;;5.43;;
42840;SDS011;28491;46.898;7.660;2023-05-27T13:25:19;9.02;;;5.30;;
42840;SDS011;28491;46.898;7.660;2023-05-27T13:27:45;11.38;;;5.72;;
42840;SDS011;28491;46.898;7.660;2023-05-27T13:30:12;8.15;;;6.03;;
42840;SDS011;28491;46.898;7.660;2023-05-27T13:32:39;8.45;;;6.35;;
42840;SDS011;28491;46.898;7.660;2023-05-27T13:35:05;11.43;;;6.07;;
42840;SDS011;28491;46.898;7.660;2023-05-27T13:37:30;11.25;;;6.25;;
42840;SDS011;28491;46.898;7.660;2023-05-27T13:39:56;8.10;;;5.60;;
42840;SDS011;28491;46.898;7.660;2023-05-27T13:42:23;11.90;;;5.82;;
42840;SDS011;28491;46.898;7.660;2023-05-27T13:44:48;8.02;;;5.07;;
42840;SDS011;28491;46.898;7.660;2023-05-27T13:47:14;9.77;;;5.38;;
42840;SDS011;28491;46.898;7.660;2023-05-27T13:49:40;8.80;;;5.85;;
42840;SDS011;28491;46.898;7.660;2023-05-27T13:52:05;11.35;;;5.70;;
42840;SDS011;28491;46.898;7.660;2023-05-27T13:54:31;9.15;;;6.03;;
42840;SDS011;28491;46.898;7.660;2023-05-27T13:56:57;9.45;;;5.85;;
42840;SDS011;28491;46.898;7.660;2023-05-27T13:59:22;9.30;;;6.00;;
42840;SDS011;28491;46.898;7.660;2023-05-27T14:01:48;10.50;;;6.25;;
42840;SDS011;28491;46.898;7.660;2023-05-27T14:04:15;8.02;;;5.13;;
42840;SDS011;28491;46.898;7.660;2023-05-27T14:06:41;11.63;;;5.70;;
42840;SDS011;28491;46.898;7.660;2023-05-27T14:09:06;8.18;;;5.70;;
42840;SDS011;28491;46.898;7.660;2023-05-27T14:11:32;9.07;;;5.03;;
42840;SDS011;28491;46.898;7.660;2023-05-27T14:13:58;16.70;;;5.57;;
42840;SDS011;28491;46.898;7.660;2023-05-27T14:16:24;7.75;;;5.10;;
42840;SDS011;28491;46.898;7.660;2023-05-27T14:18:49;8.30;;;5.05;;
42840;SDS011;28491;46.898;7.660;2023-05-27T14:21:15;11.18;;;6.53;;
42840;SDS011;28491;46.898;7.660;2023-05-27T14:23:41;8.05;;;5.75;;
42840;SDS011;28491;46.898;7.660;2023-05-27T14:26:07;8.68;;;5.15;;
42840;SDS011;28491;46.898;7.660;2023-05-27T14:28:33;10.30;;;5.78;;
42840;SDS011;28491;46.898;7.660;2023-05-27T14:30:58;6.78;;;5.47;;
42840;SDS011;28491;46.898;7.660;2023-05-27T14:33:24;10.68;;;5.55;;
42840;SDS011;28491;46.898;7.660;2023-05-27T14:35:50;8.85;;;5.35;;
42840;SDS011;28491;46.898;7.660;2023-05-27T14:38:16;17.50;;;6.57;;
42840;SDS011;28491;46.898;7.660;2023-05-27T14:40:42;6.93;;;5.30;;
42840;SDS011;28491;46.898;7.660;2023-05-27T14:43:09;7.78;;;4.60;;
42840;SDS011;28491;46.898;7.660;2023-05-27T14:45:35;8.02;;;5.65;;
42840;SDS011;28491;46.898;7.660;2023-05-27T14:48:00;13.80;;;5.30;;
42840;SDS011;28491;46.898;7.660;2023-05-27T14:50:26;11.45;;;5.97;;
42840;SDS011;28491;46.898;7.660;2023-05-27T14:52:52;10.55;;;6.50;;
42840;SDS011;28491;46.898;7.660;2023-05-27T14:55:19;11.02;;;5.43;;
42840;SDS011;28491;46.898;7.660;2023-05-27T14:57:44;7.72;;;5.20;;
42840;SDS011;28491;46.898;7.660;2023-05-27T15:00:10;9.77;;;6.18;;
42840;SDS011;28491;46.898;7.660;2023-05-27T15:02:37;7.18;;;5.15;;